sensor_id;sensor_type;location;lat;lon;timestamp;P1;durP1;ratioP1;P2;durP2;ratioP2
6547;SDS011;3307;52.416;16.862;2022-08-05T00:02:09;10.57;;;9.37;;
6547;SDS011;3307;52.416;16.862;2022-08-05T00:04:35;9.93;;;9.00;;
6547;SDS011;3307;52.416;16.862;2022-08-05T00:07:00;10.43;;;9.53;;
6547;SDS011;3307;52.416;16.862;2022-08-05T00:09:25;10.50;;;9.47;;
6547;SDS011;3307;52.416;16.862;2022-08-05T00:11:51;10.07;;;9.10;;
6547;SDS011;3307;52.416;16.862;2022-08-05T00:14:16;10.17;;;9.23;;
6547;SDS011;3307;52.416;16.862;2022-08-05T00:16:42;10.53;;;9.73;;
6547;SDS011;3307;52.416;16.862;2022-08-05T00:19:07;11.23;;;10.20;;
6547;SDS011;3307;52.416;16.862;2022-08-05T00:21:33;8.97;;;8.27;;
6547;SDS011;3307;52.416;16.862;2022-08-05T00:23:58;10.27;;;9.43;;
6547;SDS011;3307;52.416;16.862;2022-08-05T00:26:24;9.60;;;8.90;;
6547;SDS011;3307;52.416;16.862;2022-08-05T00:28:50;9.30;;;8.57;;
6547;SDS011;3307;52.416;16.862;2022-08-05T00:31:15;9.80;;;9.10;;
6547;SDS011;3307;52.416;16.862;2022-08-05T00:33:41;9.40;;;8.80;;
6547;SDS011;3307;52.416;16.862;2022-08-05T00:36:06;10.27;;;9.30;;
6547;SDS011;3307;52.416;16.862;2022-08-05T00:38:32;9.90;;;9.07;;
6547;SDS011;3307;52.416;16.862;2022-08-05T00:40:57;9.40;;;8.50;;
6547;SDS011;3307;52.416;16.862;2022-08-05T00:43:23;9.77;;;9.07;;
6547;SDS011;3307;52.416;16.862;2022-08-05T00:45:49;9.40;;;8.80;;
6547;SDS011;3307;52.416;16.862;2022-08-05T00:48:15;9.13;;;8.40;;
6547;SDS011;3307;52.416;16.862;2022-08-05T00:50:42;9.33;;;8.53;;
6547;SDS011;3307;52.416;16.862;2022-08-05T00:53:09;8.30;;;7.70;;
6547;SDS011;3307;52.416;16.862;2022-08-05T00:55:35;10.07;;;9.37;;
6547;SDS011;3307;52.416;16.862;2022-08-05T00:58:01;9.97;;;8.90;;
6547;SDS011;3307;52.416;16.862;2022-08-05T01:00:27;9.17;;;8.47;;
6547;SDS011;3307;52.416;16.862;2022-08-05T01:02:54;9.83;;;9.00;;
6547;SDS011;3307;52.416;16.862;2022-08-05T01:05:20;9.20;;;8.50;;
6547;SDS011;3307;52.416;16.862;2022-08-05T01:07:45;9.70;;;9.00;;
6547;SDS011;3307;52.416;16.862;2022-08-05T01:10:11;8.93;;;8.23;;
6547;SDS011;3307;52.416;16.862;2022-08-05T01:12:38;9.33;;;8.20;;
6547;SDS011;3307;52.416;16.862;2022-08-05T01:15:09;8.80;;;7.90;;
6547;SDS011;3307;52.416;16.862;2022-08-05T01:17:37;10.30;;;9.50;;
6547;SDS011;3307;52.416;16.862;2022-08-05T01:33:51;9.00;;;8.10;;
6547;SDS011;3307;52.416;16.862;2022-08-05T01:36:21;9.70;;;9.00;;
6547;SDS011;3307;52.416;16.862;2022-08-05T01:38:50;9.37;;;8.67;;
6547;SDS011;3307;52.416;16.862;2022-08-05T01:41:15;9.00;;;8.30;;
6547;SDS011;3307;52.416;16.862;2022-08-05T01:43:42;8.90;;;8.20;;
6547;SDS011;3307;52.416;16.862;2022-08-05T01:46:08;8.53;;;7.93;;
6547;SDS011;3307;52.416;16.862;2022-08-05T01:48:34;9.80;;;8.80;;
6547;SDS011;3307;52.416;16.862;2022-08-05T01:51:00;9.10;;;8.30;;
6547;SDS011;3307;52.416;16.862;2022-08-05T01:53:27;9.67;;;8.97;;
6547;SDS011;3307;52.416;16.862;2022-08-05T01:55:52;10.00;;;9.30;;
6547;SDS011;3307;52.416;16.862;2022-08-05T01:58:20;9.70;;;8.90;;
6547;SDS011;3307;52.416;16.862;2022-08-05T02:00:48;10.60;;;9.60;;
6547;SDS011;3307;52.416;16.862;2022-08-05T02:05:45;10.10;;;9.10;;
6547;SDS011;3307;52.416;16.862;2022-08-05T02:08:11;10.40;;;9.40;;
6547;SDS011;3307;52.416;16.862;2022-08-05T02:10:44;10.60;;;9.73;;
6547;SDS011;3307;52.416;16.862;2022-08-05T02:13:14;10.60;;;9.67;;
6547;SDS011;3307;52.416;16.862;2022-08-05T02:15:53;9.87;;;9.07;;
6547;SDS011;3307;52.416;16.862;2022-08-05T02:18:22;10.50;;;9.70;;
6547;SDS011;3307;52.416;16.862;2022-08-05T02:20:53;10.67;;;9.87;;
6547;SDS011;3307;52.416;16.862;2022-08-05T02:23:23;10.90;;;10.03;;
6547;SDS011;3307;52.416;16.862;2022-08-05T02:25:52;11.30;;;10.43;;
6547;SDS011;3307;52.416;16.862;2022-08-05T02:28:18;9.80;;;9.13;;
6547;SDS011;3307;52.416;16.862;2022-08-05T02:30:50;15.40;;;10.80;;
6547;SDS011;3307;52.416;16.862;2022-08-05T02:33:21;10.77;;;9.87;;
6547;SDS011;3307;52.416;16.862;2022-08-05T02:35:48;9.90;;;9.20;;
6547;SDS011;3307;52.416;16.862;2022-08-05T02:38:14;14.23;;;9.70;;
6547;SDS011;3307;52.416;16.862;2022-08-05T02:40:41;10.63;;;9.73;;
6547;SDS011;3307;52.416;16.862;2022-08-05T02:43:07;11.07;;;10.10;;
6547;SDS011;3307;52.416;16.862;2022-08-05T02:45:35;10.10;;;9.30;;
6547;SDS011;3307;52.416;16.862;2022-08-05T02:48:00;10.40;;;9.50;;
6547;SDS011;3307;52.416;16.862;2022-08-05T02:50:26;11.27;;;10.37;;
6547;SDS011;3307;52.416;16.862;2022-08-05T02:52:52;10.97;;;9.83;;
6547;SDS011;3307;52.416;16.862;2022-08-05T02:55:18;10.90;;;10.00;;
6547;SDS011;3307;52.416;16.862;2022-08-05T02:57:45;10.27;;;9.47;;
6547;SDS011;3307;52.416;16.862;2022-08-05T03:00:10;10.30;;;9.50;;
6547;SDS011;3307;52.416;16.862;2022-08-05T03:02:38;10.77;;;9.90;;
6547;SDS011;3307;52.416;16.862;2022-08-05T03:05:06;10.50;;;9.70;;
6547;SDS011;3307;52.416;16.862;2022-08-05T03:07:33;11.00;;;10.07;;
6547;SDS011;3307;52.416;16.862;2022-08-05T03:09:59;10.73;;;9.93;;
6547;SDS011;3307;52.416;16.862;2022-08-05T03:12:28;11.27;;;10.23;;
6547;SDS011;3307;52.416;16.862;2022-08-05T03:14:56;10.43;;;9.33;;
6547;SDS011;3307;52.416;16.862;2022-08-05T03:17:22;11.73;;;10.73;;
6547;SDS011;3307;52.416;16.862;2022-08-05T03:19:47;11.30;;;10.23;;
6547;SDS011;3307;52.416;16.862;2022-08-05T03:22:13;11.63;;;10.57;;
6547;SDS011;3307;52.416;16.862;2022-08-05T03:24:39;10.80;;;10.00;;
6547;SDS011;3307;52.416;16.862;2022-08-05T03:27:05;11.03;;;9.93;;
6547;SDS011;3307;52.416;16.862;2022-08-05T03:29:31;10.60;;;9.90;;
6547;SDS011;3307;52.416;16.862;2022-08-05T03:31:56;9.90;;;9.00;;
6547;SDS011;3307;52.416;16.862;2022-08-05T03:34:21;10.20;;;9.50;;
6547;SDS011;3307;52.416;16.862;2022-08-05T03:36:47;11.13;;;9.93;;
6547;SDS011;3307;52.416;16.862;2022-08-05T03:39:12;10.57;;;9.70;;
6547;SDS011;3307;52.416;16.862;2022-08-05T03:41:38;10.77;;;9.50;;
6547;SDS011;3307;52.416;16.862;2022-08-05T03:44:03;11.63;;;10.47;;
6547;SDS011;3307;52.416;16.862;2022-08-05T03:46:29;10.43;;;9.73;;
6547;SDS011;3307;52.416;16.862;2022-08-05T03:48:54;11.80;;;10.60;;
6547;SDS011;3307;52.416;16.862;2022-08-05T03:51:21;10.30;;;9.30;;
6547;SDS011;3307;52.416;16.862;2022-08-05T03:53:56;11.10;;;10.20;;
6547;SDS011;3307;52.416;16.862;2022-08-05T03:56:29;11.33;;;10.43;;
6547;SDS011;3307;52.416;16.862;2022-08-05T03:59:02;10.13;;;9.43;;
6547;SDS011;3307;52.416;16.862;2022-08-05T04:01:30;11.20;;;10.10;;
6547;SDS011;3307;52.416;16.862;2022-08-05T04:03:55;12.07;;;10.20;;
6547;SDS011;3307;52.416;16.862;2022-08-05T04:06:22;10.77;;;9.87;;
6547;SDS011;3307;52.416;16.862;2022-08-05T04:08:47;11.10;;;10.03;;
6547;SDS011;3307;52.416;16.862;2022-08-05T04:11:13;11.37;;;10.37;;
6547;SDS011;3307;52.416;16.862;2022-08-05T04:13:39;11.80;;;10.67;;
6547;SDS011;3307;52.416;16.862;2022-08-05T04:16:06;11.83;;;10.63;;
6547;SDS011;3307;52.416;16.862;2022-08-05T04:18:32;12.73;;;11.17;;
6547;SDS011;3307;52.416;16.862;2022-08-05T04:20:57;12.10;;;11.00;;
6547;SDS011;3307;52.416;16.862;2022-08-05T04:23:23;11.43;;;10.53;;
6547;SDS011;3307;52.416;16.862;2022-08-05T04:25:50;11.93;;;11.00;;
6547;SDS011;3307;52.416;16.862;2022-08-05T04:28:16;12.23;;;11.07;;
6547;SDS011;3307;52.416;16.862;2022-08-05T04:30:42;12.60;;;11.37;;
6547;SDS011;3307;52.416;16.862;2022-08-05T04:33:08;11.80;;;10.80;;
6547;SDS011;3307;52.416;16.862;2022-08-05T04:35:33;11.80;;;10.80;;
6547;SDS011;3307;52.416;16.862;2022-08-05T04:37:59;11.33;;;10.43;;
6547;SDS011;3307;52.416;16.862;2022-08-05T04:40:24;11.77;;;10.77;;
6547;SDS011;3307;52.416;16.862;2022-08-05T04:42:49;10.93;;;10.13;;
6547;SDS011;3307;52.416;16.862;2022-08-05T04:45:15;11.20;;;10.07;;
6547;SDS011;3307;52.416;16.862;2022-08-05T04:47:40;11.73;;;10.63;;
6547;SDS011;3307;52.416;16.862;2022-08-05T04:50:06;11.30;;;10.20;;
6547;SDS011;3307;52.416;16.862;2022-08-05T04:52:32;10.50;;;9.60;;
6547;SDS011;3307;52.416;16.862;2022-08-05T04:54:57;11.27;;;10.40;;
6547;SDS011;3307;52.416;16.862;2022-08-05T04:57:23;11.23;;;10.13;;
6547;SDS011;3307;52.416;16.862;2022-08-05T04:59:49;11.20;;;10.20;;
6547;SDS011;3307;52.416;16.862;2022-08-05T05:02:15;11.40;;;10.33;;
6547;SDS011;3307;52.416;16.862;2022-08-05T05:04:40;12.00;;;10.80;;
6547;SDS011;3307;52.416;16.862;2022-08-05T05:07:05;12.10;;;11.10;;
6547;SDS011;3307;52.416;16.862;2022-08-05T05:09:31;11.93;;;10.20;;
6547;SDS011;3307;52.416;16.862;2022-08-05T05:11:56;11.00;;;10.10;;
6547;SDS011;3307;52.416;16.862;2022-08-05T05:14:22;11.97;;;10.53;;
6547;SDS011;3307;52.416;16.862;2022-08-05T05:16:48;11.13;;;10.30;;
6547;SDS011;3307;52.416;16.862;2022-08-05T05:19:13;12.43;;;10.23;;
6547;SDS011;3307;52.416;16.862;2022-08-05T05:21:38;11.40;;;10.20;;
6547;SDS011;3307;52.416;16.862;2022-08-05T05:24:04;10.73;;;9.60;;
6547;SDS011;3307;52.416;16.862;2022-08-05T05:26:29;10.83;;;9.50;;
6547;SDS011;3307;52.416;16.862;2022-08-05T05:28:55;15.13;;;10.17;;
6547;SDS011;3307;52.416;16.862;2022-08-05T05:31:20;9.90;;;9.10;;
6547;SDS011;3307;52.416;16.862;2022-08-05T05:33:46;11.23;;;10.00;;
6547;SDS011;3307;52.416;16.862;2022-08-05T05:36:11;14.57;;;10.70;;
6547;SDS011;3307;52.416;16.862;2022-08-05T05:38:36;10.33;;;9.40;;
6547;SDS011;3307;52.416;16.862;2022-08-05T05:41:02;10.33;;;8.93;;
6547;SDS011;3307;52.416;16.862;2022-08-05T05:43:27;11.33;;;10.30;;
6547;SDS011;3307;52.416;16.862;2022-08-05T05:45:53;12.73;;;9.60;;
6547;SDS011;3307;52.416;16.862;2022-08-05T05:48:18;10.00;;;9.13;;
6547;SDS011;3307;52.416;16.862;2022-08-05T05:50:44;11.50;;;10.47;;
6547;SDS011;3307;52.416;16.862;2022-08-05T05:53:09;10.77;;;9.70;;
6547;SDS011;3307;52.416;16.862;2022-08-05T05:55:35;11.80;;;8.47;;
6547;SDS011;3307;52.416;16.862;2022-08-05T05:58:01;9.40;;;8.50;;
6547;SDS011;3307;52.416;16.862;2022-08-05T06:00:26;9.20;;;8.40;;
6547;SDS011;3307;52.416;16.862;2022-08-05T06:02:52;9.43;;;8.60;;
6547;SDS011;3307;52.416;16.862;2022-08-05T06:05:17;10.07;;;8.30;;
6547;SDS011;3307;52.416;16.862;2022-08-05T06:07:43;9.40;;;8.57;;
6547;SDS011;3307;52.416;16.862;2022-08-05T06:10:09;9.00;;;8.20;;
6547;SDS011;3307;52.416;16.862;2022-08-05T06:12:36;8.50;;;7.67;;
6547;SDS011;3307;52.416;16.862;2022-08-05T06:15:02;10.00;;;8.77;;
6547;SDS011;3307;52.416;16.862;2022-08-05T06:17:28;10.40;;;9.33;;
6547;SDS011;3307;52.416;16.862;2022-08-05T06:19:53;8.30;;;7.60;;
6547;SDS011;3307;52.416;16.862;2022-08-05T06:22:22;9.53;;;8.73;;
6547;SDS011;3307;52.416;16.862;2022-08-05T06:24:49;8.17;;;7.57;;
6547;SDS011;3307;52.416;16.862;2022-08-05T06:27:15;9.00;;;8.20;;
6547;SDS011;3307;52.416;16.862;2022-08-05T06:29:40;9.33;;;8.53;;
6547;SDS011;3307;52.416;16.862;2022-08-05T06:32:06;9.10;;;8.47;;
6547;SDS011;3307;52.416;16.862;2022-08-05T06:34:32;9.33;;;8.40;;
6547;SDS011;3307;52.416;16.862;2022-08-05T06:36:57;9.27;;;8.47;;
6547;SDS011;3307;52.416;16.862;2022-08-05T06:39:22;8.50;;;7.70;;
6547;SDS011;3307;52.416;16.862;2022-08-05T06:41:48;8.77;;;8.07;;
6547;SDS011;3307;52.416;16.862;2022-08-05T06:44:14;8.37;;;7.77;;
6547;SDS011;3307;52.416;16.862;2022-08-05T06:46:39;9.13;;;8.37;;
6547;SDS011;3307;52.416;16.862;2022-08-05T06:49:04;9.03;;;8.13;;
6547;SDS011;3307;52.416;16.862;2022-08-05T06:51:30;9.00;;;8.20;;
6547;SDS011;3307;52.416;16.862;2022-08-05T06:53:59;8.83;;;8.03;;
6547;SDS011;3307;52.416;16.862;2022-08-05T06:56:26;8.50;;;7.70;;
6547;SDS011;3307;52.416;16.862;2022-08-05T06:58:52;7.97;;;7.33;;
6547;SDS011;3307;52.416;16.862;2022-08-05T07:01:18;9.27;;;8.37;;
6547;SDS011;3307;52.416;16.862;2022-08-05T07:03:43;9.23;;;8.33;;
6547;SDS011;3307;52.416;16.862;2022-08-05T07:06:08;8.80;;;8.10;;
6547;SDS011;3307;52.416;16.862;2022-08-05T07:08:34;8.60;;;7.90;;
6547;SDS011;3307;52.416;16.862;2022-08-05T07:10:59;9.07;;;8.27;;
6547;SDS011;3307;52.416;16.862;2022-08-05T07:13:25;9.13;;;8.23;;
6547;SDS011;3307;52.416;16.862;2022-08-05T07:16:08;9.43;;;8.53;;
6547;SDS011;3307;52.416;16.862;2022-08-05T07:18:52;8.50;;;7.80;;
6547;SDS011;3307;52.416;16.862;2022-08-05T07:21:18;9.03;;;8.33;;
6547;SDS011;3307;52.416;16.862;2022-08-05T07:23:43;8.80;;;8.00;;
6547;SDS011;3307;52.416;16.862;2022-08-05T07:26:08;9.37;;;8.00;;
6547;SDS011;3307;52.416;16.862;2022-08-05T07:28:34;8.27;;;7.63;;
6547;SDS011;3307;52.416;16.862;2022-08-05T07:30:59;11.50;;;8.10;;
6547;SDS011;3307;52.416;16.862;2022-08-05T07:33:25;9.40;;;8.50;;
6547;SDS011;3307;52.416;16.862;2022-08-05T07:35:50;9.00;;;8.20;;
6547;SDS011;3307;52.416;16.862;2022-08-05T07:38:16;9.83;;;8.90;;
6547;SDS011;3307;52.416;16.862;2022-08-05T07:40:42;9.13;;;8.33;;
6547;SDS011;3307;52.416;16.862;2022-08-05T07:43:08;9.33;;;8.30;;
6547;SDS011;3307;52.416;16.862;2022-08-05T07:45:33;8.97;;;8.00;;
6547;SDS011;3307;52.416;16.862;2022-08-05T07:47:59;9.10;;;8.20;;
6547;SDS011;3307;52.416;16.862;2022-08-05T07:50:24;9.43;;;8.60;;
6547;SDS011;3307;52.416;16.862;2022-08-05T07:52:50;9.30;;;8.50;;
6547;SDS011;3307;52.416;16.862;2022-08-05T07:55:15;9.30;;;8.50;;
6547;SDS011;3307;52.416;16.862;2022-08-05T07:57:41;9.17;;;8.43;;
6547;SDS011;3307;52.416;16.862;2022-08-05T08:00:06;8.97;;;8.20;;
6547;SDS011;3307;52.416;16.862;2022-08-05T08:02:33;8.00;;;7.33;;
6547;SDS011;3307;52.416;16.862;2022-08-05T08:04:58;9.80;;;9.00;;
6547;SDS011;3307;52.416;16.862;2022-08-05T08:07:24;9.53;;;8.83;;
6547;SDS011;3307;52.416;16.862;2022-08-05T08:09:50;10.90;;;8.50;;
6547;SDS011;3307;52.416;16.862;2022-08-05T08:12:16;9.53;;;8.63;;
6547;SDS011;3307;52.416;16.862;2022-08-05T08:14:41;8.70;;;8.07;;
6547;SDS011;3307;52.416;16.862;2022-08-05T08:17:07;8.37;;;7.77;;
6547;SDS011;3307;52.416;16.862;2022-08-05T08:19:41;9.13;;;8.23;;
6547;SDS011;3307;52.416;16.862;2022-08-05T08:22:07;11.93;;;8.60;;
6547;SDS011;3307;52.416;16.862;2022-08-05T08:24:33;8.80;;;8.10;;
6547;SDS011;3307;52.416;16.862;2022-08-05T08:26:59;9.80;;;8.90;;
6547;SDS011;3307;52.416;16.862;2022-08-05T08:29:25;9.10;;;8.50;;
6547;SDS011;3307;52.416;16.862;2022-08-05T08:31:50;9.03;;;8.30;;
6547;SDS011;3307;52.416;16.862;2022-08-05T08:34:16;9.40;;;8.70;;
6547;SDS011;3307;52.416;16.862;2022-08-05T08:36:42;8.83;;;8.20;;
6547;SDS011;3307;52.416;16.862;2022-08-05T08:39:08;9.00;;;8.10;;
6547;SDS011;3307;52.416;16.862;2022-08-05T08:41:33;9.03;;;8.23;;
6547;SDS011;3307;52.416;16.862;2022-08-05T08:44:00;8.23;;;7.53;;
6547;SDS011;3307;52.416;16.862;2022-08-05T08:46:27;10.17;;;9.03;;
6547;SDS011;3307;52.416;16.862;2022-08-05T08:48:54;9.60;;;8.90;;
6547;SDS011;3307;52.416;16.862;2022-08-05T08:51:20;9.80;;;8.80;;
6547;SDS011;3307;52.416;16.862;2022-08-05T08:53:47;9.00;;;8.30;;
6547;SDS011;3307;52.416;16.862;2022-08-05T08:56:14;11.40;;;8.90;;
6547;SDS011;3307;52.416;16.862;2022-08-05T08:58:39;9.70;;;8.60;;
6547;SDS011;3307;52.416;16.862;2022-08-05T09:01:06;9.50;;;8.70;;
6547;SDS011;3307;52.416;16.862;2022-08-05T09:03:32;8.60;;;7.90;;
6547;SDS011;3307;52.416;16.862;2022-08-05T09:05:58;9.50;;;8.43;;
6547;SDS011;3307;52.416;16.862;2022-08-05T09:08:23;8.90;;;8.30;;
6547;SDS011;3307;52.416;16.862;2022-08-05T09:10:48;10.10;;;8.50;;
6547;SDS011;3307;52.416;16.862;2022-08-05T09:13:15;10.60;;;9.23;;
6547;SDS011;3307;52.416;16.862;2022-08-05T09:15:41;8.47;;;7.77;;
6547;SDS011;3307;52.416;16.862;2022-08-05T09:18:06;8.13;;;7.43;;
6547;SDS011;3307;52.416;16.862;2022-08-05T09:20:33;9.07;;;8.20;;
6547;SDS011;3307;52.416;16.862;2022-08-05T09:25:37;8.97;;;7.97;;
6547;SDS011;3307;52.416;16.862;2022-08-05T09:30:41;8.67;;;7.97;;
6547;SDS011;3307;52.416;16.862;2022-08-05T09:33:17;9.00;;;8.30;;
6547;SDS011;3307;52.416;16.862;2022-08-05T09:35:54;9.87;;;9.07;;
6547;SDS011;3307;52.416;16.862;2022-08-05T09:38:27;8.43;;;7.57;;
6547;SDS011;3307;52.416;16.862;2022-08-05T09:40:53;9.40;;;8.50;;
6547;SDS011;3307;52.416;16.862;2022-08-05T09:43:31;8.77;;;8.03;;
6547;SDS011;3307;52.416;16.862;2022-08-05T09:45:57;9.40;;;8.60;;
6547;SDS011;3307;52.416;16.862;2022-08-05T09:48:24;8.97;;;8.37;;
6547;SDS011;3307;52.416;16.862;2022-08-05T09:50:52;9.63;;;8.63;;
6547;SDS011;3307;52.416;16.862;2022-08-05T09:53:19;9.50;;;8.70;;
6547;SDS011;3307;52.416;16.862;2022-08-05T09:55:45;7.80;;;7.20;;
6547;SDS011;3307;52.416;16.862;2022-08-05T09:58:15;9.87;;;8.87;;
6547;SDS011;3307;52.416;16.862;2022-08-05T10:00:59;9.07;;;8.23;;
6547;SDS011;3307;52.416;16.862;2022-08-05T10:03:26;8.30;;;7.70;;
6547;SDS011;3307;52.416;16.862;2022-08-05T10:06:08;8.50;;;7.80;;
6547;SDS011;3307;52.416;16.862;2022-08-05T10:08:35;9.23;;;8.40;;
6547;SDS011;3307;52.416;16.862;2022-08-05T10:11:02;8.50;;;7.90;;
6547;SDS011;3307;52.416;16.862;2022-08-05T10:13:38;9.30;;;8.47;;
6547;SDS011;3307;52.416;16.862;2022-08-05T10:16:04;8.83;;;8.10;;
6547;SDS011;3307;52.416;16.862;2022-08-05T10:18:31;9.50;;;8.77;;
6547;SDS011;3307;52.416;16.862;2022-08-05T10:21:00;9.03;;;8.27;;
6547;SDS011;3307;52.416;16.862;2022-08-05T10:23:29;8.13;;;7.30;;
6547;SDS011;3307;52.416;16.862;2022-08-05T10:26:03;9.27;;;8.30;;
6547;SDS011;3307;52.416;16.862;2022-08-05T10:28:33;8.50;;;7.83;;
6547;SDS011;3307;52.416;16.862;2022-08-05T10:30:59;9.67;;;8.17;;
6547;SDS011;3307;52.416;16.862;2022-08-05T10:33:26;8.77;;;8.07;;
6547;SDS011;3307;52.416;16.862;2022-08-05T10:35:53;8.30;;;7.60;;
6547;SDS011;3307;52.416;16.862;2022-08-05T10:38:24;8.33;;;7.63;;
6547;SDS011;3307;52.416;16.862;2022-08-05T10:41:12;10.40;;;7.60;;
6547;SDS011;3307;52.416;16.862;2022-08-05T10:43:50;8.60;;;8.00;;
6547;SDS011;3307;52.416;16.862;2022-08-05T10:46:20;8.63;;;7.77;;
6547;SDS011;3307;52.416;16.862;2022-08-05T10:48:48;8.33;;;7.73;;
6547;SDS011;3307;52.416;16.862;2022-08-05T10:51:15;7.80;;;7.20;;
6547;SDS011;3307;52.416;16.862;2022-08-05T10:56:11;8.77;;;8.10;;
6547;SDS011;3307;52.416;16.862;2022-08-05T11:01:28;9.20;;;8.30;;
6547;SDS011;3307;52.416;16.862;2022-08-05T11:15:18;8.13;;;7.37;;
6547;SDS011;3307;52.416;16.862;2022-08-05T11:17:49;8.27;;;7.57;;
6547;SDS011;3307;52.416;16.862;2022-08-05T11:22:58;7.80;;;7.20;;
6547;SDS011;3307;52.416;16.862;2022-08-05T11:25:28;8.07;;;7.33;;
6547;SDS011;3307;52.416;16.862;2022-08-05T11:33:26;8.63;;;7.93;;
6547;SDS011;3307;52.416;16.862;2022-08-05T11:35:57;7.20;;;6.70;;
6547;SDS011;3307;52.416;16.862;2022-08-05T11:43:41;7.20;;;6.60;;
6547;SDS011;3307;52.416;16.862;2022-08-05T11:46:08;8.13;;;7.40;;
6547;SDS011;3307;52.416;16.862;2022-08-05T11:48:33;7.97;;;7.23;;
6547;SDS011;3307;52.416;16.862;2022-08-05T11:51:00;7.77;;;6.80;;
6547;SDS011;3307;52.416;16.862;2022-08-05T11:53:26;6.87;;;6.27;;
6547;SDS011;3307;52.416;16.862;2022-08-05T11:55:52;5.70;;;5.30;;
6547;SDS011;3307;52.416;16.862;2022-08-05T11:58:23;6.30;;;5.80;;
6547;SDS011;3307;52.416;16.862;2022-08-05T12:01:00;6.40;;;5.83;;
6547;SDS011;3307;52.416;16.862;2022-08-05T12:03:26;5.97;;;5.57;;
6547;SDS011;3307;52.416;16.862;2022-08-05T12:05:52;6.10;;;5.60;;
6547;SDS011;3307;52.416;16.862;2022-08-05T12:08:18;7.03;;;6.23;;
6547;SDS011;3307;52.416;16.862;2022-08-05T12:10:43;6.53;;;6.10;;
6547;SDS011;3307;52.416;16.862;2022-08-05T12:13:09;5.97;;;5.57;;
6547;SDS011;3307;52.416;16.862;2022-08-05T12:15:34;8.13;;;5.67;;
6547;SDS011;3307;52.416;16.862;2022-08-05T12:18:00;6.23;;;5.73;;
6547;SDS011;3307;52.416;16.862;2022-08-05T12:20:28;5.77;;;5.37;;
6547;SDS011;3307;52.416;16.862;2022-08-05T12:23:15;6.07;;;5.57;;
6547;SDS011;3307;52.416;16.862;2022-08-05T12:25:52;6.00;;;5.60;;
6547;SDS011;3307;52.416;16.862;2022-08-05T12:28:34;6.33;;;5.57;;
6547;SDS011;3307;52.416;16.862;2022-08-05T12:31:01;6.83;;;6.03;;
6547;SDS011;3307;52.416;16.862;2022-08-05T12:33:27;6.43;;;5.90;;
6547;SDS011;3307;52.416;16.862;2022-08-05T12:35:53;5.57;;;5.13;;
6547;SDS011;3307;52.416;16.862;2022-08-05T12:38:20;6.50;;;5.90;;
6547;SDS011;3307;52.416;16.862;2022-08-05T12:40:49;7.73;;;6.40;;
6547;SDS011;3307;52.416;16.862;2022-08-05T12:43:14;6.00;;;5.50;;
6547;SDS011;3307;52.416;16.862;2022-08-05T12:45:50;5.80;;;5.40;;
6547;SDS011;3307;52.416;16.862;2022-08-05T12:48:18;5.47;;;5.03;;
6547;SDS011;3307;52.416;16.862;2022-08-05T12:51:07;4.70;;;4.40;;
6547;SDS011;3307;52.416;16.862;2022-08-05T12:53:44;5.73;;;5.40;;
6547;SDS011;3307;52.416;16.862;2022-08-05T12:56:16;8.10;;;4.80;;
6547;SDS011;3307;52.416;16.862;2022-08-05T13:01:44;8.50;;;6.00;;
6547;SDS011;3307;52.416;16.862;2022-08-05T13:04:17;7.43;;;5.50;;
6547;SDS011;3307;52.416;16.862;2022-08-05T13:06:43;7.07;;;5.67;;
6547;SDS011;3307;52.416;16.862;2022-08-05T13:09:11;8.10;;;6.93;;
6547;SDS011;3307;52.416;16.862;2022-08-05T13:11:41;6.63;;;5.17;;
6547;SDS011;3307;52.416;16.862;2022-08-05T13:14:14;8.07;;;6.37;;
6547;SDS011;3307;52.416;16.862;2022-08-05T13:16:47;8.20;;;5.70;;
6547;SDS011;3307;52.416;16.862;2022-08-05T13:19:14;10.57;;;5.70;;
6547;SDS011;3307;52.416;16.862;2022-08-05T13:21:39;8.57;;;5.90;;
6547;SDS011;3307;52.416;16.862;2022-08-05T13:24:05;13.10;;;7.70;;
6547;SDS011;3307;52.416;16.862;2022-08-05T13:26:31;15.77;;;7.00;;
6547;SDS011;3307;52.416;16.862;2022-08-05T13:28:56;14.60;;;7.73;;
6547;SDS011;3307;52.416;16.862;2022-08-05T13:31:22;6.93;;;5.80;;
6547;SDS011;3307;52.416;16.862;2022-08-05T13:33:47;5.73;;;5.40;;
6547;SDS011;3307;52.416;16.862;2022-08-05T13:36:13;7.43;;;6.70;;
6547;SDS011;3307;52.416;16.862;2022-08-05T13:38:38;7.47;;;6.60;;
6547;SDS011;3307;52.416;16.862;2022-08-05T13:41:03;6.13;;;5.73;;
6547;SDS011;3307;52.416;16.862;2022-08-05T13:43:29;6.13;;;5.53;;
6547;SDS011;3307;52.416;16.862;2022-08-05T13:45:54;9.07;;;6.30;;
6547;SDS011;3307;52.416;16.862;2022-08-05T13:48:20;6.13;;;5.63;;
6547;SDS011;3307;52.416;16.862;2022-08-05T13:50:45;6.07;;;5.13;;
6547;SDS011;3307;52.416;16.862;2022-08-05T13:53:10;7.80;;;6.57;;
6547;SDS011;3307;52.416;16.862;2022-08-05T13:55:36;6.00;;;5.53;;
6547;SDS011;3307;52.416;16.862;2022-08-05T13:58:01;12.30;;;6.40;;
6547;SDS011;3307;52.416;16.862;2022-08-05T14:00:27;6.17;;;5.67;;
6547;SDS011;3307;52.416;16.862;2022-08-05T14:02:52;7.00;;;5.70;;
6547;SDS011;3307;52.416;16.862;2022-08-05T14:05:17;12.70;;;7.20;;
6547;SDS011;3307;52.416;16.862;2022-08-05T14:07:43;6.50;;;5.97;;
6547;SDS011;3307;52.416;16.862;2022-08-05T14:10:16;6.87;;;6.17;;
6547;SDS011;3307;52.416;16.862;2022-08-05T14:12:43;8.10;;;6.80;;
6547;SDS011;3307;52.416;16.862;2022-08-05T14:15:09;8.30;;;6.27;;
6547;SDS011;3307;52.416;16.862;2022-08-05T14:17:36;5.63;;;5.13;;
6547;SDS011;3307;52.416;16.862;2022-08-05T14:20:02;8.00;;;5.97;;
6547;SDS011;3307;52.416;16.862;2022-08-05T14:22:29;9.50;;;6.43;;
6547;SDS011;3307;52.416;16.862;2022-08-05T14:24:54;6.00;;;5.50;;
6547;SDS011;3307;52.416;16.862;2022-08-05T14:27:19;7.23;;;6.50;;
6547;SDS011;3307;52.416;16.862;2022-08-05T14:29:45;6.67;;;6.17;;
6547;SDS011;3307;52.416;16.862;2022-08-05T14:32:10;6.43;;;5.83;;
6547;SDS011;3307;52.416;16.862;2022-08-05T14:34:35;6.20;;;5.73;;
6547;SDS011;3307;52.416;16.862;2022-08-05T14:37:02;6.50;;;5.77;;
6547;SDS011;3307;52.416;16.862;2022-08-05T14:39:28;6.47;;;5.67;;
6547;SDS011;3307;52.416;16.862;2022-08-05T14:41:53;6.50;;;5.77;;
6547;SDS011;3307;52.416;16.862;2022-08-05T14:44:19;6.30;;;5.70;;
6547;SDS011;3307;52.416;16.862;2022-08-05T14:46:44;6.53;;;6.00;;
6547;SDS011;3307;52.416;16.862;2022-08-05T14:49:10;7.13;;;6.53;;
6547;SDS011;3307;52.416;16.862;2022-08-05T14:51:35;6.60;;;6.10;;
6547;SDS011;3307;52.416;16.862;2022-08-05T14:54:01;6.77;;;6.33;;
6547;SDS011;3307;52.416;16.862;2022-08-05T14:56:27;5.83;;;5.30;;
6547;SDS011;3307;52.416;16.862;2022-08-05T14:58:52;6.20;;;5.70;;
6547;SDS011;3307;52.416;16.862;2022-08-05T15:01:18;8.10;;;6.33;;
6547;SDS011;3307;52.416;16.862;2022-08-05T15:03:43;7.53;;;6.87;;
6547;SDS011;3307;52.416;16.862;2022-08-05T15:06:09;6.70;;;6.10;;
6547;SDS011;3307;52.416;16.862;2022-08-05T15:08:34;6.30;;;5.80;;
6547;SDS011;3307;52.416;16.862;2022-08-05T15:10:59;7.17;;;6.57;;
6547;SDS011;3307;52.416;16.862;2022-08-05T15:13:25;6.13;;;5.73;;
6547;SDS011;3307;52.416;16.862;2022-08-05T15:15:50;6.00;;;5.60;;
6547;SDS011;3307;52.416;16.862;2022-08-05T15:18:16;6.10;;;5.70;;
6547;SDS011;3307;52.416;16.862;2022-08-05T15:20:41;6.10;;;5.70;;
6547;SDS011;3307;52.416;16.862;2022-08-05T15:23:08;6.47;;;5.97;;
6547;SDS011;3307;52.416;16.862;2022-08-05T15:25:34;6.10;;;5.33;;
6547;SDS011;3307;52.416;16.862;2022-08-05T15:28:00;6.20;;;5.60;;
6547;SDS011;3307;52.416;16.862;2022-08-05T15:30:25;5.50;;;5.20;;
6547;SDS011;3307;52.416;16.862;2022-08-05T15:32:51;5.43;;;5.13;;
6547;SDS011;3307;52.416;16.862;2022-08-05T15:35:17;6.50;;;5.47;;
6547;SDS011;3307;52.416;16.862;2022-08-05T15:37:42;8.53;;;6.20;;
6547;SDS011;3307;52.416;16.862;2022-08-05T15:40:07;7.30;;;5.50;;
6547;SDS011;3307;52.416;16.862;2022-08-05T15:42:33;5.70;;;5.20;;
6547;SDS011;3307;52.416;16.862;2022-08-05T15:44:59;6.83;;;6.27;;
6547;SDS011;3307;52.416;16.862;2022-08-05T15:47:24;8.60;;;6.03;;
6547;SDS011;3307;52.416;16.862;2022-08-05T15:49:50;6.67;;;6.13;;